9VYFC WSSL-WSSL
Flight info
| Callsign | 9VYFC |
|---|---|
| Flight time | 0h 6m |
| Altitude | 1000 |
| Route | CCTS |
| Aircraft | DA40/L-SDE1FGHILORVWXY/LB1D1 |
Departure
| Time | 2026-04-25 06:13 |
|---|---|
| Airport | Seletar Airport (WSSL) |
Arrival
| Time | 2026-04-25 06:19 |
|---|---|
| Airport | Seletar Airport (WSSL) |
| Time | Latitude | Longitude | Altitude | Speed | Heading |
|---|---|---|---|---|---|
| 2026-04-25 05:56 | 1.41446 | 103.86384 | 49 ft | 0 kts | 149° |
| 2026-04-25 06:04 | 1.41431 | 103.86392 | 49 ft | 3 kts | 145° |
| 2026-04-25 06:04 | 1.41430 | 103.86411 | 49 ft | 4 kts | 38° |
| 2026-04-25 06:05 | 1.41460 | 103.86431 | 49 ft | 5 kts | 45° |
| 2026-04-25 06:05 | 1.41484 | 103.86459 | 49 ft | 6 kts | 32° |
| 2026-04-25 06:05 | 1.41507 | 103.86473 | 49 ft | 2 kts | 33° |
| 2026-04-25 06:05 | 1.41524 | 103.86484 | 49 ft | 0 kts | 32° |
| 2026-04-25 06:06 | 1.41527 | 103.86484 | 49 ft | 0 kts | 352° |
| 2026-04-25 06:08 | 1.41547 | 103.86499 | 49 ft | 10 kts | 41° |
| 2026-04-25 06:08 | 1.41562 | 103.86530 | 49 ft | 6 kts | 133° |
| 2026-04-25 06:08 | 1.41546 | 103.86550 | 49 ft | 0 kts | 124° |
| 2026-04-25 06:09 | 1.41537 | 103.86566 | 49 ft | 13 kts | 116° |
| 2026-04-25 06:10 | 1.41474 | 103.86619 | 50 ft | 12 kts | 206° |
| 2026-04-25 06:10 | 1.41369 | 103.86538 | 49 ft | 27 kts | 220° |
| 2026-04-25 06:10 | 1.41293 | 103.86499 | 49 ft | 5 kts | 106° |
| 2026-04-25 06:10 | 1.41304 | 103.86510 | 49 ft | 2 kts | 32° |
| 2026-04-25 06:11 | 1.41305 | 103.86511 | 49 ft | 0 kts | 35° |
| 2026-04-25 06:11 | 1.41306 | 103.86511 | 49 ft | 0 kts | 34° |
| 2026-04-25 06:12 | 1.41339 | 103.86532 | 49 ft | 23 kts | 33° |
| 2026-04-25 06:12 | 1.41613 | 103.86711 | 62 ft | 65 kts | 33° |
| 2026-04-25 06:12 | 1.42008 | 103.86960 | 258 ft | 70 kts | 32° |
| 2026-04-25 06:13 | 1.42444 | 103.87199 | 532 ft | 70 kts | 29° |
| 2026-04-25 06:13 | 1.42908 | 103.87347 | 814 ft | 79 kts | 359° |
| 2026-04-25 06:13 | 1.43359 | 103.87028 | 1303 ft | 86 kts | 300° |
| 2026-04-25 06:14 | 1.42884 | 103.85866 | 2559 ft | 104 kts | 227° |
| 2026-04-25 06:14 | 1.42324 | 103.85363 | 2618 ft | 108 kts | 224° |
| 2026-04-25 06:14 | 1.41803 | 103.84862 | 2568 ft | 111 kts | 225° |
| 2026-04-25 06:14 | 1.41222 | 103.84314 | 2494 ft | 108 kts | 223° |
| 2026-04-25 06:15 | 1.40697 | 103.83884 | 2510 ft | 94 kts | 202° |
| 2026-04-25 06:15 | 1.40064 | 103.83920 | 2482 ft | 90 kts | 142° |
| 2026-04-25 06:15 | 1.39768 | 103.84399 | 2515 ft | 79 kts | 98° |
| 2026-04-25 06:15 | 1.39697 | 103.84931 | 2512 ft | 81 kts | 69° |
| 2026-04-25 06:16 | 1.39914 | 103.85453 | 2519 ft | 82 kts | 64° |
| 2026-04-25 06:16 | 1.40230 | 103.85939 | 2531 ft | 84 kts | 49° |
| 2026-04-25 06:16 | 1.40654 | 103.86365 | 2449 ft | 89 kts | 59° |
| 2026-04-25 06:16 | 1.41109 | 103.86580 | 2427 ft | 80 kts | 348° |
| 2026-04-25 06:17 | 1.41636 | 103.86323 | 2355 ft | 86 kts | 334° |
| 2026-04-25 06:17 | 1.42039 | 103.85894 | 2366 ft | 93 kts | 284° |
| 2026-04-25 06:17 | 1.41795 | 103.85307 | 2253 ft | 103 kts | 240° |
| 2026-04-25 06:17 | 1.41314 | 103.84797 | 2055 ft | 105 kts | 241° |
| 2026-04-25 06:18 | 1.40892 | 103.84250 | 1821 ft | 95 kts | 244° |
| 2026-04-25 06:18 | 1.40413 | 103.84093 | 1639 ft | 78 kts | 124° |
| 2026-04-25 06:18 | 1.40089 | 103.84632 | 1026 ft | 99 kts | 137° |
| 2026-04-25 06:18 | 1.39761 | 103.85183 | 688 ft | 84 kts | 99° |
| 2026-04-25 06:19 | 1.40007 | 103.85641 | 492 ft | 74 kts | 41° |
| 2026-04-25 06:19 | 1.40374 | 103.85911 | 286 ft | 66 kts | 32° |
| 2026-04-25 06:19 | 1.40777 | 103.86169 | 98 ft | 68 kts | 33° |
| 2026-04-25 06:19 | 1.41107 | 103.86381 | 48 ft | 43 kts | 36° |
| 2026-04-25 06:20 | 1.41432 | 103.86591 | 92 ft | 66 kts | 35° |
| 2026-04-25 06:20 | 1.41831 | 103.86822 | 298 ft | 68 kts | 33° |
| 2026-04-25 06:20 | 1.42205 | 103.87086 | 512 ft | 62 kts | 30° |
| 2026-04-25 06:20 | 1.42637 | 103.87253 | 662 ft | 73 kts | 11° |
| 2026-04-25 06:21 | 1.43113 | 103.87012 | 907 ft | 88 kts | 309° |
| 2026-04-25 06:21 | 1.43360 | 103.86462 | 1199 ft | 87 kts | 278° |
| 2026-04-25 06:21 | 1.43076 | 103.85890 | 1427 ft | 99 kts | 225° |
| 2026-04-25 06:21 | 1.42584 | 103.85476 | 1999 ft | 84 kts | 218° |
| 2026-04-25 06:22 | 1.42180 | 103.84991 | 2595 ft | 94 kts | 227° |
| 2026-04-25 06:22 | 1.41698 | 103.84475 | 2573 ft | 128 kts | 230° |
| 2026-04-25 06:22 | 1.41115 | 103.83798 | 2682 ft | 119 kts | 233° |
| 2026-04-25 06:22 | 1.40492 | 103.83274 | 2466 ft | 131 kts | 204° |
| 2026-04-25 06:23 | 1.39700 | 103.83068 | 2532 ft | 114 kts | 173° |
| 2026-04-25 06:23 | 1.39005 | 103.83333 | 2521 ft | 100 kts | 134° |
| 2026-04-25 06:23 | 1.38649 | 103.83887 | 2436 ft | 96 kts | 105° |
| 2026-04-25 06:23 | 1.38528 | 103.84470 | 2535 ft | 85 kts | 90° |
| 2026-04-25 06:24 | 1.38635 | 103.85040 | 2437 ft | 87 kts | 57° |
| 2026-04-25 06:24 | 1.39140 | 103.85427 | 2448 ft | 94 kts | 43° |
| 2026-04-25 06:24 | 1.39582 | 103.85823 | 2519 ft | 78 kts | 44° |
| 2026-04-25 06:24 | 1.39953 | 103.86189 | 2474 ft | 74 kts | 44° |
| 2026-04-25 06:25 | 1.40341 | 103.86523 | 2451 ft | 77 kts | 36° |
| 2026-04-25 06:25 | 1.40803 | 103.86794 | 2431 ft | 75 kts | 25° |
| 2026-04-25 06:25 | 1.41335 | 103.86706 | 2338 ft | 84 kts | 332° |
| 2026-04-25 06:25 | 1.41808 | 103.86298 | 2248 ft | 92 kts | 340° |
| 2026-04-25 06:26 | 1.42184 | 103.85990 | 1614 ft | 143 kts | 237° |
| 2026-04-25 06:26 | 1.41737 | 103.85311 | 1842 ft | 106 kts | 235° |
| 2026-04-25 06:26 | 1.41359 | 103.84701 | 1968 ft | 100 kts | 237° |
| 2026-04-25 06:26 | 1.40720 | 103.84304 | 1739 ft | 117 kts | 165° |
| 2026-04-25 06:27 | 1.40080 | 103.84803 | 1473 ft | 117 kts | 142° |
| 2026-04-25 06:27 | 1.39679 | 103.85437 | 1289 ft | 92 kts | 80° |
| 2026-04-25 06:27 | 1.40147 | 103.85781 | 673 ft | 99 kts | 20° |
| 2026-04-25 06:27 | 1.40747 | 103.86146 | 112 ft | 92 kts | 28° |
| 2026-04-25 06:28 | 1.41167 | 103.86419 | 52 ft | 54 kts | 28° |
| 2026-04-25 06:28 | 1.41478 | 103.86618 | 51 ft | 63 kts | 31° |
| 2026-04-25 06:28 | 1.41861 | 103.86875 | 137 ft | 74 kts | 26° |
| 2026-04-25 06:28 | 1.42303 | 103.87110 | 320 ft | 73 kts | 30° |
| 2026-04-25 06:29 | 1.42727 | 103.87356 | 530 ft | 71 kts | 27° |
| 2026-04-25 06:29 | 1.43228 | 103.87271 | 639 ft | 86 kts | 322° |
| 2026-04-25 06:29 | 1.43546 | 103.86797 | 814 ft | 88 kts | 292° |
| 2026-04-25 06:29 | 1.43463 | 103.86223 | 1012 ft | 90 kts | 233° |
| 2026-04-25 06:30 | 1.43024 | 103.85743 | 1052 ft | 98 kts | 222° |
| 2026-04-25 06:30 | 1.42485 | 103.85282 | 1095 ft | 103 kts | 219° |
| 2026-04-25 06:30 | 1.41916 | 103.84879 | 1102 ft | 101 kts | 212° |
| 2026-04-25 06:30 | 1.41332 | 103.84501 | 1102 ft | 96 kts | 210° |
| 2026-04-25 06:31 | 1.40741 | 103.84284 | 1036 ft | 87 kts | 175° |
| 2026-04-25 06:31 | 1.40275 | 103.84567 | 955 ft | 79 kts | 129° |
| 2026-04-25 06:31 | 1.39980 | 103.85024 | 771 ft | 83 kts | 119° |
| 2026-04-25 06:31 | 1.39857 | 103.85563 | 576 ft | 76 kts | 60° |
| 2026-04-25 06:32 | 1.40247 | 103.85840 | 330 ft | 65 kts | 27° |
| 2026-04-25 06:32 | 1.40661 | 103.86089 | 154 ft | 69 kts | 31° |
| 2026-04-25 06:32 | 1.41037 | 103.86337 | 52 ft | 54 kts | 30° |
| 2026-04-25 06:32 | 1.41323 | 103.86521 | 50 ft | 61 kts | 33° |
| 2026-04-25 06:33 | 1.41704 | 103.86753 | 200 ft | 65 kts | 32° |
| 2026-04-25 06:33 | 1.42114 | 103.86990 | 372 ft | 70 kts | 28° |
| 2026-04-25 06:33 | 1.42572 | 103.87182 | 556 ft | 73 kts | 33° |
| 2026-04-25 06:33 | 1.43043 | 103.87161 | 667 ft | 90 kts | 316° |
| 2026-04-25 06:34 | 1.43305 | 103.86646 | 939 ft | 81 kts | 285° |
| 2026-04-25 06:34 | 1.43288 | 103.86230 | 984 ft | 96 kts | 259° |
| 2026-04-25 06:34 | 1.42927 | 103.85714 | 1215 ft | 94 kts | 216° |
| 2026-04-25 06:34 | 1.42401 | 103.85321 | 1390 ft | 92 kts | 211° |
| 2026-04-25 06:35 | 1.41925 | 103.84977 | 1601 ft | 94 kts | 214° |
| 2026-04-25 06:35 | 1.41433 | 103.84546 | 1954 ft | 89 kts | 207° |
| 2026-04-25 06:35 | 1.40897 | 103.84195 | 2305 ft | 96 kts | 214° |
| 2026-04-25 06:35 | 1.40336 | 103.83814 | 2558 ft | 101 kts | 208° |
| 2026-04-25 06:36 | 1.39663 | 103.83689 | 2644 ft | 99 kts | 167° |
| 2026-04-25 06:36 | 1.39004 | 103.83968 | 2603 ft | 99 kts | 128° |
| 2026-04-25 06:36 | 1.39061 | 103.84484 | 2574 ft | 90 kts | 25° |
| 2026-04-25 06:36 | 1.39546 | 103.84145 | 2510 ft | 105 kts | 278° |
| 2026-04-25 06:37 | 1.39163 | 103.83564 | 2515 ft | 109 kts | 200° |
| 2026-04-25 06:37 | 1.38510 | 103.83745 | 2529 ft | 101 kts | 123° |
| 2026-04-25 06:37 | 1.38408 | 103.84383 | 2444 ft | 93 kts | 69° |
| 2026-04-25 06:37 | 1.38707 | 103.84939 | 2467 ft | 92 kts | 56° |
| 2026-04-25 06:38 | 1.39099 | 103.85426 | 2492 ft | 92 kts | 39° |
| 2026-04-25 06:38 | 1.39601 | 103.85824 | 2464 ft | 95 kts | 48° |
| 2026-04-25 06:38 | 1.40112 | 103.86237 | 2457 ft | 94 kts | 36° |
| 2026-04-25 06:38 | 1.40652 | 103.86570 | 2510 ft | 92 kts | 32° |
| 2026-04-25 06:39 | 1.41191 | 103.86906 | 2490 ft | 86 kts | 38° |
| 2026-04-25 06:39 | 1.41705 | 103.87012 | 2402 ft | 78 kts | 340° |
| 2026-04-25 06:39 | 1.42046 | 103.86581 | 2217 ft | 87 kts | 295° |
| 2026-04-25 06:39 | 1.42174 | 103.85985 | 2038 ft | 91 kts | 275° |
| 2026-04-25 06:40 | 1.42056 | 103.85292 | 1705 ft | 106 kts | 256° |
| 2026-04-25 06:40 | 1.41709 | 103.84713 | 1560 ft | 94 kts | 214° |
| 2026-04-25 06:40 | 1.41167 | 103.84362 | 1395 ft | 91 kts | 205° |
| 2026-04-25 06:40 | 1.40654 | 103.84063 | 1258 ft | 80 kts | 190° |
| 2026-04-25 06:41 | 1.40156 | 103.84218 | 980 ft | 81 kts | 124° |
| 2026-04-25 06:41 | 1.39896 | 103.84701 | 819 ft | 77 kts | 113° |
| 2026-04-25 06:41 | 1.39719 | 103.85213 | 575 ft | 77 kts | 89° |
| 2026-04-25 06:41 | 1.39935 | 103.85659 | 400 ft | 76 kts | 29° |
| 2026-04-25 06:42 | 1.40377 | 103.85913 | 359 ft | 73 kts | 29° |
| 2026-04-25 06:42 | 1.40810 | 103.86188 | 129 ft | 71 kts | 31° |
| 2026-04-25 06:42 | 1.41162 | 103.86421 | 49 ft | 47 kts | 27° |
| 2026-04-25 06:42 | 1.41456 | 103.86610 | 60 ft | 64 kts | 35° |
| 2026-04-25 06:43 | 1.41841 | 103.86856 | 243 ft | 66 kts | 31° |
| 2026-04-25 06:43 | 1.42249 | 103.87085 | 406 ft | 71 kts | 27° |
| 2026-04-25 06:43 | 1.42697 | 103.87281 | 586 ft | 74 kts | 29° |
| 2026-04-25 06:43 | 1.43174 | 103.87434 | 763 ft | 76 kts | 355° |
| 2026-04-25 06:44 | 1.43599 | 103.87065 | 899 ft | 86 kts | 300° |
| 2026-04-25 06:44 | 1.43723 | 103.86507 | 1060 ft | 91 kts | 263° |
| 2026-04-25 06:44 | 1.43365 | 103.86008 | 1276 ft | 89 kts | 215° |
| 2026-04-25 06:44 | 1.42858 | 103.85691 | 1506 ft | 86 kts | 206° |
| 2026-04-25 06:45 | 1.42300 | 103.85478 | 1687 ft | 84 kts | 177° |
| 2026-04-25 06:45 | 1.41779 | 103.85167 | 1869 ft | 89 kts | 218° |
| 2026-04-25 06:45 | 1.41249 | 103.84801 | 2009 ft | 98 kts | 210° |
| 2026-04-25 06:45 | 1.40671 | 103.84450 | 2195 ft | 98 kts | 206° |
| 2026-04-25 06:46 | 1.40068 | 103.84135 | 2400 ft | 94 kts | 204° |
| 2026-04-25 06:46 | 1.39499 | 103.84186 | 2571 ft | 88 kts | 129° |
| 2026-04-25 06:46 | 1.39235 | 103.84747 | 2430 ft | 87 kts | 96° |
| 2026-04-25 06:46 | 1.39297 | 103.85308 | 2520 ft | 77 kts | 59° |
| 2026-04-25 06:47 | 1.39724 | 103.85695 | 2539 ft | 82 kts | 44° |
| 2026-04-25 06:47 | 1.40135 | 103.86089 | 2568 ft | 83 kts | 43° |
| 2026-04-25 06:47 | 1.40573 | 103.86473 | 2600 ft | 83 kts | 37° |
| 2026-04-25 06:47 | 1.40993 | 103.86846 | 2535 ft | 80 kts | 38° |
| 2026-04-25 06:48 | 1.41487 | 103.86947 | 2418 ft | 76 kts | 347° |
| 2026-04-25 06:48 | 1.41942 | 103.86636 | 2259 ft | 79 kts | 319° |
| 2026-04-25 06:48 | 1.42221 | 103.86136 | 2059 ft | 88 kts | 292° |
| 2026-04-25 06:48 | 1.42211 | 103.85531 | 1890 ft | 90 kts | 252° |
| 2026-04-25 06:49 | 1.41911 | 103.84974 | 1672 ft | 91 kts | 229° |
| 2026-04-25 06:49 | 1.41504 | 103.84538 | 1542 ft | 86 kts | 217° |
| 2026-04-25 06:49 | 1.41016 | 103.84156 | 1330 ft | 89 kts | 212° |
| 2026-04-25 06:49 | 1.40473 | 103.84071 | 1143 ft | 77 kts | 148° |
| 2026-04-25 06:50 | 1.40158 | 103.84489 | 957 ft | 73 kts | 115° |
| 2026-04-25 06:50 | 1.39974 | 103.84968 | 744 ft | 75 kts | 106° |
| 2026-04-25 06:50 | 1.39990 | 103.85473 | 556 ft | 72 kts | 64° |
| 2026-04-25 06:50 | 1.40341 | 103.85869 | 382 ft | 75 kts | 36° |
| 2026-04-25 06:51 | 1.40742 | 103.86144 | 183 ft | 66 kts | 33° |
| 2026-04-25 06:51 | 1.41094 | 103.86381 | 48 ft | 49 kts | 26° |
| 2026-04-25 06:51 | 1.41424 | 103.86592 | 101 ft | 65 kts | 35° |
| 2026-04-25 06:51 | 1.41781 | 103.86865 | 301 ft | 65 kts | 41° |
| 2026-04-25 06:52 | 1.42141 | 103.87111 | 468 ft | 65 kts | 25° |
| 2026-04-25 06:52 | 1.42526 | 103.87277 | 668 ft | 63 kts | 22° |
| 2026-04-25 06:52 | 1.43034 | 103.87325 | 750 ft | 81 kts | 336° |
| 2026-04-25 06:52 | 1.43401 | 103.86886 | 952 ft | 83 kts | 306° |
| 2026-04-25 06:53 | 1.43593 | 103.86332 | 983 ft | 90 kts | 261° |
| 2026-04-25 06:53 | 1.43155 | 103.85839 | 995 ft | 100 kts | 214° |
| 2026-04-25 06:53 | 1.42611 | 103.85440 | 1048 ft | 94 kts | 214° |
| 2026-04-25 06:53 | 1.42101 | 103.85058 | 1050 ft | 96 kts | 210° |
| 2026-04-25 06:54 | 1.41547 | 103.84681 | 1027 ft | 94 kts | 209° |
| 2026-04-25 06:54 | 1.41023 | 103.84344 | 956 ft | 89 kts | 210° |
| 2026-04-25 06:54 | 1.40458 | 103.84165 | 766 ft | 85 kts | 162° |
| 2026-04-25 06:54 | 1.40030 | 103.84560 | 539 ft | 86 kts | 118° |
| 2026-04-25 06:55 | 1.39790 | 103.85110 | 435 ft | 86 kts | 97° |
| 2026-04-25 06:55 | 1.39953 | 103.85615 | 366 ft | 73 kts | 39° |
| 2026-04-25 06:55 | 1.40402 | 103.85922 | 220 ft | 81 kts | 32° |
| 2026-04-25 06:55 | 1.40863 | 103.86220 | 64 ft | 77 kts | 37° |
| 2026-04-25 06:56 | 1.41250 | 103.86475 | 51 ft | 56 kts | 31° |
| 2026-04-25 06:56 | 1.41552 | 103.86672 | 49 ft | 63 kts | 33° |
| 2026-04-25 06:56 | 1.41956 | 103.86938 | 190 ft | 72 kts | 34° |
| 2026-04-25 06:56 | 1.42356 | 103.87197 | 455 ft | 67 kts | 32° |
| 2026-04-25 06:57 | 1.42808 | 103.87391 | 588 ft | 75 kts | 5° |
| 2026-04-25 06:57 | 1.43271 | 103.87080 | 745 ft | 87 kts | 304° |
| 2026-04-25 06:57 | 1.43371 | 103.86493 | 937 ft | 92 kts | 259° |
| 2026-04-25 06:57 | 1.43037 | 103.85907 | 1034 ft | 108 kts | 230° |
| 2026-04-25 06:58 | 1.42510 | 103.85397 | 1056 ft | 105 kts | 217° |
| 2026-04-25 06:58 | 1.41909 | 103.84977 | 1037 ft | 104 kts | 207° |
| 2026-04-25 06:58 | 1.41312 | 103.84574 | 1043 ft | 98 kts | 209° |
| 2026-04-25 06:58 | 1.40718 | 103.84328 | 926 ft | 89 kts | 176° |
| 2026-04-25 06:59 | 1.40213 | 103.84623 | 715 ft | 83 kts | 127° |
| 2026-04-25 06:59 | 1.39847 | 103.85066 | 549 ft | 85 kts | 123° |
| 2026-04-25 06:59 | 1.39758 | 103.85547 | 461 ft | 68 kts | 45° |
| 2026-04-25 06:59 | 1.40173 | 103.85813 | 326 ft | 77 kts | 25° |
| 2026-04-25 07:00 | 1.40606 | 103.86060 | 163 ft | 70 kts | 31° |
| 2026-04-25 07:00 | 1.41006 | 103.86315 | 52 ft | 61 kts | 33° |
| 2026-04-25 07:00 | 1.41281 | 103.86495 | 49 ft | 35 kts | 33° |
| 2026-04-25 07:00 | 1.41439 | 103.86598 | 50 ft | 21 kts | 30° |
| 2026-04-25 07:01 | 1.41522 | 103.86591 | 50 ft | 11 kts | 298° |
| 2026-04-25 07:01 | 1.41558 | 103.86535 | 49 ft | 12 kts | 305° |
| 2026-04-25 07:01 | 1.41566 | 103.86486 | 49 ft | 5 kts | 214° |
| 2026-04-25 07:01 | 1.41497 | 103.86441 | 49 ft | 18 kts | 212° |
| 2026-04-25 07:02 | 1.41387 | 103.86382 | 49 ft | 21 kts | 212° |
| 2026-04-25 07:02 | 1.41312 | 103.86310 | 49 ft | 7 kts | 300° |
| 2026-04-25 07:02 | 1.41358 | 103.86308 | 49 ft | 5 kts | 19° |
| 2026-04-25 07:02 | 1.41382 | 103.86318 | 49 ft | 3 kts | 112° |
| 2026-04-25 07:03 | 1.41380 | 103.86325 | 49 ft | 0 kts | 98° |
| 2026-04-25 07:03 | 1.41380 | 103.86326 | 49 ft | 0 kts | 98° |